Darstellungsparameter: Aktuell verwendete Einstellungen:
Skalierung der Graphiken ... ?
xyx+y,   Skalierungsfaktor:      Skalierung: Modus: x, Faktor: 1
Darstellungszeitraum ... ?
Vom - - bis: - -   Zeitraum: 16.04.2021 - 17.04.2021
Min/Max/Avg-Anzeige ... ?
Zeige MMA aktuell
Zeige MMA Monat
Zeige MMA alles
Zeige --A aktuell
Zeige --A Monat
Zeige --A alles
Keine MMA-Anzeige
MMA:
Average (ber die Originaldaten)
MMA-Basis: 16.04.2021 - 17.04.2021
Quicknavigation für Darstellung... ?
Tage:      1T, 2T, 3T, 5T -1T -2T -3T -5T +1T +2T +3T +5T
Wochen: 1W, 2W, 3W -1W -2W -3W +1W +2W +3W
Monate: 1M, 3M, 6M -1M -3M -6M +1M +3M +6M
Jahre:    1J, 3J, 5J, 10J -1J -3J -5J -10J +1J +3J +5J +10J
Nutze für die Darstellung ... ?
Originaldaten oder Mittelwerte auf ...
Stundenbasis Tagesbasis Wochenbasis
Monatsbasis Jahresbasis      Datenbasis: Original-Daten
Darstellen als:
Statistik (Auto) Statistik J:M      Darstellung:
Zur Graphik,    zurück zur Übersicht aller Sensoren.
 
Tabellarische Datenbersicht: ?
 
Sensor: Nr:Datum:Temp:Abs-Feuchte:Windchill:Wind:
Aussen-T/F 1 16-04-2021 00:00:00 2.1 C 4.81 g/m*3 2.1 C 0 km/h
2 16-04-2021 00:05:00 2.1 C 4.81 g/m*3 2.1 C 3.2 km/h
3 16-04-2021 00:10:00 2 C 4.78 g/m*3 2 C 1.6 km/h
4 16-04-2021 00:15:00 1.8 C 4.71 g/m*3 1.8 C 0 km/h
5 16-04-2021 00:20:00 1.7 C 4.68 g/m*3 1.7 C 3.2 km/h
6 16-04-2021 00:25:00 1.6 C 4.65 g/m*3 1.6 C 0 km/h
7 16-04-2021 00:30:00 1.4 C 4.59 g/m*3 1.4 C 0 km/h
8 16-04-2021 00:35:00 1.3 C 4.61 g/m*3 1.3 C 0 km/h
9 16-04-2021 00:40:00 1.2 C 4.58 g/m*3 1.2 C 0 km/h
10 16-04-2021 00:45:00 1.1 C 4.6 g/m*3 1.1 C 0 km/h
11 16-04-2021 00:50:00 0.9 C 4.54 g/m*3 0.9 C 0 km/h
12 16-04-2021 00:55:00 0.8 C 4.51 g/m*3 0.8 C 0 km/h
13 16-04-2021 01:00:00 0.8 C 4.56 g/m*3 0.8 C 0 km/h
14 16-04-2021 01:05:00 0.7 C 4.53 g/m*3 0.7 C 0 km/h
15 16-04-2021 01:10:00 0.7 C 4.58 g/m*3 0.7 C 0 km/h
16 16-04-2021 01:15:00 0.7 C 4.58 g/m*3 0.7 C 0 km/h
17 16-04-2021 01:20:00 0.7 C 4.58 g/m*3 0.7 C 0 km/h
18 16-04-2021 01:25:00 0.7 C 4.58 g/m*3 0.7 C 0 km/h
19 16-04-2021 01:30:00 0.6 C 4.49 g/m*3 0.6 C 0 km/h
20 16-04-2021 01:35:00 0.5 C 4.46 g/m*3 0.5 C 0 km/h
21 16-04-2021 01:40:00 0.4 C 4.48 g/m*3 0.4 C 0 km/h
22 16-04-2021 01:45:00 0.3 C 4.45 g/m*3 0.3 C 0 km/h
23 16-04-2021 01:50:00 0.3 C 4.45 g/m*3 0.3 C 0 km/h
24 16-04-2021 01:55:00 0.2 C 4.42 g/m*3 0.2 C 0 km/h
25 16-04-2021 02:00:00 0.2 C 4.42 g/m*3 0.2 C 0 km/h
Sensor: Nr:Datum:Temp:Abs-Feuchte:Windchill:Wind:
Aussen-T/F 26 16-04-2021 02:05:00 0.2 C 4.42 g/m*3 0.2 C 0 km/h
27 16-04-2021 02:10:00 0.2 C 4.42 g/m*3 0.2 C 0 km/h
28 16-04-2021 02:15:00 0.2 C 4.47 g/m*3 0.2 C 0 km/h
29 16-04-2021 02:20:00 0.2 C 4.47 g/m*3 0.2 C 0 km/h
30 16-04-2021 02:25:00 0.2 C 4.47 g/m*3 0.2 C 0 km/h
31 16-04-2021 02:30:00 0.3 C 4.5 g/m*3 0.3 C 0 km/h
32 16-04-2021 02:35:00 0.4 C 4.58 g/m*3 0.4 C 0 km/h
33 16-04-2021 02:40:00 0.4 C 4.53 g/m*3 0.4 C 0 km/h
34 16-04-2021 02:45:00 0.6 C 4.65 g/m*3 0.6 C 0 km/h
35 16-04-2021 02:50:00 0.6 C 4.65 g/m*3 0.6 C 0 km/h
36 16-04-2021 02:55:00 0.7 C 4.68 g/m*3 0.7 C 0 km/h
37 16-04-2021 03:00:00 0.8 C 4.71 g/m*3 0.8 C 0 km/h
38 16-04-2021 03:05:00 0.8 C 4.66 g/m*3 0.8 C 0 km/h
39 16-04-2021 03:10:00 0.9 C 4.69 g/m*3 0.9 C 0 km/h
40 16-04-2021 03:15:00 0.9 C 4.74 g/m*3 0.9 C 0 km/h
41 16-04-2021 03:20:00 0.9 C 4.69 g/m*3 0.9 C 0 km/h
42 16-04-2021 03:25:00 1 C 4.72 g/m*3 1 C 0 km/h
43 16-04-2021 03:30:00 1 C 4.72 g/m*3 1 C 0 km/h
44 16-04-2021 03:35:00 1.1 C 4.76 g/m*3 1.1 C 0 km/h
45 16-04-2021 03:40:00 1.1 C 4.76 g/m*3 1.1 C 1.6 km/h
46 16-04-2021 03:45:00 1.2 C 4.79 g/m*3 1.2 C 0 km/h
47 16-04-2021 03:50:00 1.2 C 4.79 g/m*3 1.2 C 0 km/h
48 16-04-2021 03:55:00 1.3 C 4.82 g/m*3 1.3 C 0 km/h
49 16-04-2021 04:00:00 1.3 C 4.82 g/m*3 1.3 C 0 km/h
50 16-04-2021 04:05:00 1.3 C 4.82 g/m*3 1.3 C 0 km/h
Sensor: Nr:Datum:Temp:Abs-Feuchte:Windchill:Wind:
Aussen-T/F 51 16-04-2021 04:10:00 1.4 C 4.85 g/m*3 1.4 C 0 km/h
52 16-04-2021 04:15:00 1.4 C 4.85 g/m*3 1.4 C 0 km/h
53 16-04-2021 04:20:00 1.4 C 4.85 g/m*3 1.4 C 0 km/h
54 16-04-2021 04:25:00 1.4 C 4.85 g/m*3 1.4 C 0 km/h
55 16-04-2021 04:30:00 1.4 C 4.85 g/m*3 1.4 C 0 km/h
56 16-04-2021 04:35:00 1.5 C 4.89 g/m*3 1.5 C 0 km/h
57 16-04-2021 04:40:00 1.5 C 4.89 g/m*3 1.5 C 1.6 km/h
58 16-04-2021 04:45:00 1.5 C 4.89 g/m*3 1.5 C 0 km/h
59 16-04-2021 04:50:00 1.6 C 4.92 g/m*3 1.6 C 0 km/h
60 16-04-2021 04:55:00 1.6 C 4.87 g/m*3 1.6 C 0 km/h
61 16-04-2021 05:00:00 1.6 C 4.87 g/m*3 1.6 C 0 km/h
62 16-04-2021 05:05:00 1.6 C 4.87 g/m*3 1.6 C 0 km/h
63 16-04-2021 05:10:00 1.6 C 4.87 g/m*3 1.6 C 0 km/h
64 16-04-2021 05:15:00 1.6 C 4.87 g/m*3 1.6 C 0 km/h
65 16-04-2021 05:20:00 1.6 C 4.87 g/m*3 1.6 C 0 km/h
66 16-04-2021 05:25:00 1.6 C 4.87 g/m*3 1.6 C 0 km/h
67 16-04-2021 05:30:00 1.6 C 4.87 g/m*3 1.6 C 0 km/h
68 16-04-2021 05:35:00 1.6 C 4.87 g/m*3 1.6 C 0 km/h
69 16-04-2021 05:40:00 1.5 C 4.83 g/m*3 1.5 C 0 km/h
70 16-04-2021 05:45:00 1.5 C 4.83 g/m*3 1.5 C 0 km/h
71 16-04-2021 05:50:00 1.4 C 4.8 g/m*3 1.4 C 0 km/h
72 16-04-2021 05:55:00 1.5 C 4.83 g/m*3 1.5 C 0 km/h
73 16-04-2021 06:00:00 1.5 C 4.83 g/m*3 1.5 C 0 km/h
74 16-04-2021 06:05:00 1.6 C 4.92 g/m*3 1.6 C 0 km/h
75 16-04-2021 06:10:00 1.6 C 4.87 g/m*3 1.6 C 0 km/h
Sensor: Nr:Datum:Temp:Abs-Feuchte:Windchill:Wind:
Aussen-T/F 76 16-04-2021 06:15:00 1.6 C 4.92 g/m*3 1.6 C 0 km/h
77 16-04-2021 06:20:00 1.7 C 4.9 g/m*3 1.7 C 0 km/h
78 16-04-2021 06:25:00 1.7 C 4.9 g/m*3 1.7 C 0 km/h
79 16-04-2021 06:30:00 1.7 C 4.9 g/m*3 1.7 C 0 km/h
80 16-04-2021 06:35:00 1.7 C 4.9 g/m*3 1.7 C 1.6 km/h
81 16-04-2021 06:40:00 1.7 C 4.9 g/m*3 1.7 C 0 km/h
82 16-04-2021 06:45:00 1.7 C 4.9 g/m*3 1.7 C 0 km/h
83 16-04-2021 06:50:00 1.7 C 4.9 g/m*3 1.7 C 0 km/h
84 16-04-2021 06:55:00 1.7 C 4.9 g/m*3 1.7 C 0 km/h
85 16-04-2021 07:00:00 1.7 C 4.95 g/m*3 1.7 C 0 km/h
86 16-04-2021 07:05:00 1.7 C 4.95 g/m*3 1.7 C 0 km/h
87 16-04-2021 07:10:00 1.7 C 4.95 g/m*3 1.7 C 0 km/h
88 16-04-2021 07:15:00 1.8 C 4.99 g/m*3 1.8 C 0 km/h
89 16-04-2021 07:20:00 1.8 C 4.99 g/m*3 1.8 C 0 km/h
90 16-04-2021 07:25:00 1.9 C 5.02 g/m*3 1.9 C 0 km/h
91 16-04-2021 07:30:00 1.9 C 5.02 g/m*3 1.9 C 0 km/h
92 16-04-2021 07:35:00 2 C 5.06 g/m*3 2 C 0 km/h
93 16-04-2021 07:40:00 2.1 C 5.09 g/m*3 2.1 C 0 km/h
94 16-04-2021 07:45:00 2.2 C 5.13 g/m*3 2.2 C 0 km/h
95 16-04-2021 07:50:00 2.2 C 5.13 g/m*3 2.2 C 0 km/h
96 16-04-2021 07:55:00 2.2 C 5.07 g/m*3 2.2 C 0 km/h
97 16-04-2021 08:00:00 2.2 C 5.07 g/m*3 2.2 C 0 km/h
98 16-04-2021 08:05:00 2.2 C 5.07 g/m*3 2.2 C 0 km/h
99 16-04-2021 08:10:00 2.3 C 5.1 g/m*3 2.3 C 0 km/h
100 16-04-2021 08:15:00 2.3 C 5.16 g/m*3 2.3 C 0 km/h
Sensor: Nr:Datum:Temp:Abs-Feuchte:Windchill:Wind:
Aussen-T/F 101 16-04-2021 08:20:00 2.4 C 5.2 g/m*3 2.4 C 0 km/h
102 16-04-2021 08:25:00 2.6 C 5.21 g/m*3 2.6 C 0 km/h
103 16-04-2021 08:30:00 2.7 C 5.24 g/m*3 2.7 C 0 km/h
104 16-04-2021 08:35:00 2.9 C 5.32 g/m*3 2.9 C 0 km/h
105 16-04-2021 08:40:00 3.1 C 5.33 g/m*3 3.1 C 0 km/h
106 16-04-2021 08:45:00 3.3 C 5.4 g/m*3 3.3 C 1.6 km/h
107 16-04-2021 08:50:00 3.4 C 5.44 g/m*3 3.4 C 0 km/h
108 16-04-2021 08:55:00 3.7 C 5.48 g/m*3 3.7 C 0 km/h
109 16-04-2021 09:00:00 3.8 C 5.46 g/m*3 3.8 C 1.6 km/h
110 16-04-2021 09:05:00 4 C 5.4 g/m*3 4 C 0 km/h
111 16-04-2021 09:10:00 4.2 C 5.35 g/m*3 4.2 C 3.2 km/h
112 16-04-2021 09:15:00 4.3 C 5.32 g/m*3 4.3 C 1.6 km/h
113 16-04-2021 09:20:00 4.6 C 5.29 g/m*3 2.64 C 8.1 km/h
114 16-04-2021 09:25:00 4.7 C 5.13 g/m*3 2.76 C 8.1 km/h
115 16-04-2021 09:30:00 4.9 C 5.13 g/m*3 2.61 C 9.7 km/h
116 16-04-2021 09:35:00 5 C 5.1 g/m*3 2.72 C 9.7 km/h
117 16-04-2021 09:40:00 5.2 C 5.1 g/m*3 3.34 C 8.1 km/h
118 16-04-2021 09:45:00 5.3 C 5.13 g/m*3 2.75 C 11.3 km/h
119 16-04-2021 09:50:00 5.3 C 5.06 g/m*3 3.46 C 8.1 km/h
120 16-04-2021 09:55:00 5.5 C 5.13 g/m*3 3.7 C 8.1 km/h
121 16-04-2021 10:00:00 5.6 C 5.16 g/m*3 3.44 C 9.7 km/h
122 16-04-2021 10:05:00 5.7 C 5.12 g/m*3 3.23 C 11.3 km/h
123 16-04-2021 10:10:00 5.8 C 5.16 g/m*3 3.68 C 9.7 km/h
124 16-04-2021 10:15:00 5.9 C 5.19 g/m*3 4.17 C 8.1 km/h
125 16-04-2021 10:20:00 6 C 5.15 g/m*3 4.75 C 6.4 km/h
Sensor: Nr:Datum:Temp:Abs-Feuchte:Windchill:Wind:
Aussen-T/F 126 16-04-2021 10:25:00 6.1 C 5.19 g/m*3 4.86 C 6.4 km/h
127 16-04-2021 10:30:00 6.3 C 5.18 g/m*3 5.1 C 6.4 km/h
128 16-04-2021 10:35:00 6.4 C 4.99 g/m*3 3.8 C 12.9 km/h
129 16-04-2021 10:40:00 6.5 C 5.02 g/m*3 3.92 C 12.9 km/h
130 16-04-2021 10:45:00 6.7 C 4.94 g/m*3 3.92 C 14.5 km/h
131 16-04-2021 10:50:00 6.9 C 4.93 g/m*3 4.68 C 11.3 km/h
132 16-04-2021 10:55:00 7.1 C 4.91 g/m*3 4.41 C 14.5 km/h
133 16-04-2021 11:00:00 7.2 C 4.87 g/m*3 4.77 C 12.9 km/h
134 16-04-2021 11:05:00 7.3 C 4.98 g/m*3 4.9 C 12.9 km/h
135 16-04-2021 11:10:00 7.4 C 4.85 g/m*3 5.58 C 9.7 km/h
136 16-04-2021 11:15:00 7.4 C 4.77 g/m*3 4.78 C 14.5 km/h
137 16-04-2021 11:20:00 7.4 C 4.93 g/m*3 5.93 C 8.1 km/h
138 16-04-2021 11:25:00 7.6 C 4.99 g/m*3 6.16 C 8.1 km/h
139 16-04-2021 11:30:00 7.7 C 4.87 g/m*3 5.94 C 9.7 km/h
140 16-04-2021 11:35:00 7.8 C 4.82 g/m*3 5.06 C 16.1 km/h
141 16-04-2021 11:40:00 7.9 C 4.76 g/m*3 5.39 C 14.5 km/h
142 16-04-2021 11:45:00 8.1 C 4.83 g/m*3 5.23 C 17.7 km/h
143 16-04-2021 11:50:00 8.1 C 4.83 g/m*3 5.23 C 17.7 km/h
144 16-04-2021 11:55:00 8.2 C 4.77 g/m*3 5.99 C 12.9 km/h
145 16-04-2021 12:00:00 8.2 C 4.77 g/m*3 5.99 C 12.9 km/h
146 16-04-2021 12:05:00 8.2 C 4.86 g/m*3 6.25 C 11.3 km/h
147 16-04-2021 12:10:00 8.2 C 4.77 g/m*3 6.54 C 9.7 km/h
148 16-04-2021 12:15:00 8.2 C 4.86 g/m*3 7.29 C 6.4 km/h
149 16-04-2021 12:20:00 8.2 C 4.69 g/m*3 5.36 C 17.7 km/h
150 16-04-2021 12:25:00 8.3 C 4.8 g/m*3 5.48 C 17.7 km/h
Sensor: Nr:Datum:Temp:Abs-Feuchte:Windchill:Wind:
Aussen-T/F 151 16-04-2021 12:30:00 8.3 C 4.8 g/m*3 5.48 C 17.7 km/h
152 16-04-2021 12:35:00 8.6 C 4.73 g/m*3 6.25 C 14.5 km/h
153 16-04-2021 12:40:00 8.7 C 4.76 g/m*3 5.65 C 20.9 km/h
154 16-04-2021 12:45:00 8.8 C 4.7 g/m*3 6.11 C 17.7 km/h
155 16-04-2021 12:50:00 8.8 C 4.7 g/m*3 6.5 C 14.5 km/h
156 16-04-2021 12:55:00 8.9 C 4.73 g/m*3 6.85 C 12.9 km/h
157 16-04-2021 13:00:00 9.1 C 4.97 g/m*3 6.67 C 16.1 km/h
158 16-04-2021 13:05:00 9.2 C 4.64 g/m*3 6.79 C 16.1 km/h
159 16-04-2021 13:10:00 9.2 C 4.64 g/m*3 6.79 C 16.1 km/h
160 16-04-2021 13:15:00 9.3 C 4.67 g/m*3 7.33 C 12.9 km/h
161 16-04-2021 13:20:00 9.3 C 4.76 g/m*3 7.12 C 14.5 km/h
162 16-04-2021 13:25:00 9.3 C 4.58 g/m*3 7.12 C 14.5 km/h
163 16-04-2021 13:30:00 9.1 C 4.53 g/m*3 7.33 C 11.3 km/h
164 16-04-2021 13:35:00 8.9 C 4.82 g/m*3 8.1 C 6.4 km/h
165 16-04-2021 13:40:00 8.8 C 4.79 g/m*3 6.5 C 14.5 km/h
166 16-04-2021 13:45:00 8.8 C 4.96 g/m*3 7.58 C 8.1 km/h
167 16-04-2021 13:50:00 8.7 C 4.93 g/m*3 7.46 C 8.1 km/h
168 16-04-2021 13:55:00 8.7 C 4.76 g/m*3 7.13 C 9.7 km/h
169 16-04-2021 14:00:00 8.7 C 4.84 g/m*3 7.46 C 8.1 km/h
170 16-04-2021 14:05:00 8.7 C 4.93 g/m*3 7.46 C 8.1 km/h
171 16-04-2021 14:10:00 8.8 C 4.96 g/m*3 7.98 C 6.4 km/h
172 16-04-2021 14:15:00 8.8 C 4.96 g/m*3 8.8 C 3.2 km/h
173 16-04-2021 14:20:00 8.8 C 4.96 g/m*3 8.8 C 4.8 km/h
174 16-04-2021 14:25:00 8.8 C 4.96 g/m*3 8.8 C 4.8 km/h
175 16-04-2021 14:30:00 8.8 C 5.05 g/m*3 8.8 C 1.6 km/h
Sensor: Nr:Datum:Temp:Abs-Feuchte:Windchill:Wind:
Aussen-T/F 176 16-04-2021 14:35:00 8.9 C 5.08 g/m*3 7.69 C 8.1 km/h
177 16-04-2021 14:40:00 8.8 C 4.96 g/m*3 6.97 C 11.3 km/h
178 16-04-2021 14:45:00 8.8 C 5.05 g/m*3 7.25 C 9.7 km/h
179 16-04-2021 14:50:00 8.8 C 4.96 g/m*3 7.98 C 6.4 km/h
180 16-04-2021 14:55:00 8.8 C 5.05 g/m*3 8.8 C 4.8 km/h
181 16-04-2021 15:00:00 8.9 C 5.08 g/m*3 8.9 C 3.2 km/h
182 16-04-2021 15:05:00 8.9 C 5.08 g/m*3 8.9 C 0 km/h
183 16-04-2021 15:10:00 8.9 C 5.08 g/m*3 8.9 C 0 km/h
184 16-04-2021 15:15:00 8.9 C 5.17 g/m*3 8.9 C 0 km/h
185 16-04-2021 15:20:00 8.9 C 5.08 g/m*3 8.9 C 0 km/h
186 16-04-2021 15:25:00 8.9 C 4.99 g/m*3 8.9 C 4.8 km/h
187 16-04-2021 15:30:00 8.9 C 5.08 g/m*3 8.9 C 3.2 km/h
188 16-04-2021 15:35:00 8.9 C 5.08 g/m*3 8.9 C 4.8 km/h
189 16-04-2021 15:40:00 8.9 C 5.08 g/m*3 8.9 C 3.2 km/h
190 16-04-2021 15:45:00 8.9 C 4.99 g/m*3 8.9 C 3.2 km/h
191 16-04-2021 15:50:00 8.9 C 5.08 g/m*3 6.85 C 12.9 km/h
192 16-04-2021 15:55:00 8.9 C 5.08 g/m*3 8.9 C 4.8 km/h
193 16-04-2021 16:00:00 9.1 C 5.23 g/m*3 9.1 C 4.8 km/h
194 16-04-2021 16:05:00 9.2 C 5.09 g/m*3 7.73 C 9.7 km/h
195 16-04-2021 16:10:00 9.2 C 5.09 g/m*3 7.73 C 9.7 km/h
196 16-04-2021 16:15:00 9.2 C 5.09 g/m*3 7.73 C 9.7 km/h
197 16-04-2021 16:20:00 9.3 C 5.21 g/m*3 9.3 C 4.8 km/h
198 16-04-2021 16:25:00 9.5 C 5.46 g/m*3 8.4 C 8.1 km/h
199 16-04-2021 16:30:00 9.6 C 5.31 g/m*3 7.94 C 11.3 km/h
200 16-04-2021 16:35:00 9.3 C 5.21 g/m*3 7.33 C 12.9 km/h
Sensor: Nr:Datum:Temp:Abs-Feuchte:Windchill:Wind:
Aussen-T/F 201 16-04-2021 16:40:00 9.3 C 5.3 g/m*3 7.85 C 9.7 km/h
202 16-04-2021 16:45:00 9.3 C 5.3 g/m*3 7.33 C 12.9 km/h
203 16-04-2021 16:50:00 9.3 C 5.3 g/m*3 7.33 C 12.9 km/h
204 16-04-2021 16:55:00 9.3 C 5.3 g/m*3 7.85 C 9.7 km/h
205 16-04-2021 17:00:00 9.4 C 5.43 g/m*3 8.28 C 8.1 km/h
206 16-04-2021 17:05:00 9.5 C 5.55 g/m*3 8.4 C 8.1 km/h
207 16-04-2021 17:10:00 9.6 C 5.5 g/m*3 9.6 C 3.2 km/h
208 16-04-2021 17:15:00 9.7 C 5.44 g/m*3 9.7 C 4.8 km/h
209 16-04-2021 17:20:00 9.7 C 5.44 g/m*3 9.7 C 3.2 km/h
210 16-04-2021 17:25:00 9.6 C 5.31 g/m*3 9.6 C 3.2 km/h
211 16-04-2021 17:30:00 9.6 C 5.5 g/m*3 9.6 C 4.8 km/h
212 16-04-2021 17:35:00 9.6 C 5.4 g/m*3 9.6 C 4.8 km/h
213 16-04-2021 17:40:00 9.4 C 5.34 g/m*3 8.68 C 6.4 km/h
214 16-04-2021 17:45:00 9.4 C 5.34 g/m*3 8.68 C 6.4 km/h
215 16-04-2021 17:50:00 9.3 C 5.3 g/m*3 9.3 C 1.6 km/h
216 16-04-2021 17:55:00 9.3 C 5.39 g/m*3 9.3 C 0 km/h
217 16-04-2021 18:00:00 9.3 C 5.3 g/m*3 9.3 C 0 km/h
218 16-04-2021 18:05:00 9.3 C 5.39 g/m*3 9.3 C 0 km/h
219 16-04-2021 18:10:00 9.4 C 5.43 g/m*3 9.4 C 1.6 km/h
220 16-04-2021 18:15:00 9.4 C 5.43 g/m*3 9.4 C 1.6 km/h
221 16-04-2021 18:20:00 9.4 C 5.43 g/m*3 9.4 C 1.6 km/h
222 16-04-2021 18:25:00 9.4 C 5.43 g/m*3 9.4 C 0 km/h
223 16-04-2021 18:30:00 9.4 C 5.43 g/m*3 9.4 C 1.6 km/h
224 16-04-2021 18:35:00 9.4 C 5.43 g/m*3 9.4 C 1.6 km/h
225 16-04-2021 18:40:00 9.4 C 5.43 g/m*3 9.4 C 0 km/h
Sensor: Nr:Datum:Temp:Abs-Feuchte:Windchill:Wind:
Aussen-T/F 226 16-04-2021 18:45:00 9.4 C 5.43 g/m*3 9.4 C 0 km/h
227 16-04-2021 18:50:00 9.4 C 5.43 g/m*3 9.4 C 1.6 km/h
228 16-04-2021 18:55:00 9.3 C 5.48 g/m*3 9.3 C 0 km/h
229 16-04-2021 19:00:00 9.3 C 5.48 g/m*3 9.3 C 0 km/h
230 16-04-2021 19:05:00 9.3 C 5.57 g/m*3 9.3 C 0 km/h
231 16-04-2021 19:10:00 9.3 C 5.48 g/m*3 9.3 C 0 km/h
232 16-04-2021 19:15:00 9.2 C 5.54 g/m*3 9.2 C 0 km/h
233 16-04-2021 19:20:00 9.2 C 5.71 g/m*3 9.2 C 0 km/h
234 16-04-2021 19:25:00 9.2 C 5.54 g/m*3 9.2 C 0 km/h
235 16-04-2021 19:30:00 9.1 C 5.59 g/m*3 9.1 C 0 km/h
236 16-04-2021 19:35:00 9.1 C 5.59 g/m*3 9.1 C 0 km/h
237 16-04-2021 19:40:00 9 C 5.73 g/m*3 9 C 0 km/h
238 16-04-2021 19:45:00 9 C 5.91 g/m*3 9 C 0 km/h
239 16-04-2021 19:50:00 8.9 C 5.87 g/m*3 8.9 C 0 km/h
240 16-04-2021 19:55:00 8.8 C 5.92 g/m*3 8.8 C 0 km/h
241 16-04-2021 20:00:00 8.8 C 6.01 g/m*3 8.8 C 0 km/h
242 16-04-2021 20:05:00 8.7 C 5.97 g/m*3 8.7 C 0 km/h
243 16-04-2021 20:10:00 8.6 C 5.93 g/m*3 8.6 C 0 km/h
244 16-04-2021 20:15:00 8.4 C 5.94 g/m*3 8.4 C 0 km/h
245 16-04-2021 20:20:00 8.2 C 5.86 g/m*3 8.2 C 0 km/h
246 16-04-2021 20:25:00 7.9 C 5.83 g/m*3 7.9 C 0 km/h
247 16-04-2021 20:30:00 7.8 C 5.96 g/m*3 7.8 C 3.2 km/h
248 16-04-2021 20:35:00 7.6 C 5.88 g/m*3 7.6 C 3.2 km/h
249 16-04-2021 20:40:00 7.3 C 5.85 g/m*3 7.3 C 4.8 km/h
250 16-04-2021 20:45:00 7.2 C 5.89 g/m*3 7.2 C 4.8 km/h
Sensor: Nr:Datum:Temp:Abs-Feuchte:Windchill:Wind:
Aussen-T/F 251 16-04-2021 20:50:00 7 C 5.81 g/m*3 7 C 3.2 km/h
252 16-04-2021 20:55:00 6.8 C 5.81 g/m*3 6.8 C 1.6 km/h
253 16-04-2021 21:00:00 6.6 C 5.81 g/m*3 6.6 C 0 km/h
254 16-04-2021 21:05:00 6.4 C 5.74 g/m*3 6.4 C 0 km/h
255 16-04-2021 21:10:00 6.3 C 5.77 g/m*3 6.3 C 0 km/h
256 16-04-2021 21:15:00 6.2 C 5.74 g/m*3 6.2 C 0 km/h
257 16-04-2021 21:20:00 6 C 5.73 g/m*3 6 C 0 km/h
258 16-04-2021 21:25:00 5.9 C 5.77 g/m*3 5.9 C 0 km/h
259 16-04-2021 21:30:00 5.8 C 5.73 g/m*3 5.8 C 0 km/h
260 16-04-2021 21:35:00 5.8 C 5.8 g/m*3 5.8 C 0 km/h
261 16-04-2021 21:40:00 5.8 C 5.8 g/m*3 5.8 C 0 km/h
262 16-04-2021 21:45:00 5.8 C 5.8 g/m*3 5.8 C 0 km/h
263 16-04-2021 21:50:00 5.8 C 5.8 g/m*3 5.8 C 0 km/h
264 16-04-2021 21:55:00 5.8 C 5.87 g/m*3 5.8 C 0 km/h
265 16-04-2021 22:00:00 5.8 C 5.8 g/m*3 5.8 C 0 km/h
266 16-04-2021 22:05:00 5.7 C 5.76 g/m*3 5.7 C 0 km/h
267 16-04-2021 22:10:00 5.6 C 5.8 g/m*3 5.6 C 0 km/h
268 16-04-2021 22:15:00 5.5 C 5.76 g/m*3 5.5 C 0 km/h
269 16-04-2021 22:20:00 5.4 C 5.72 g/m*3 5.4 C 0 km/h
270 16-04-2021 22:25:00 5.4 C 5.79 g/m*3 5.4 C 0 km/h
271 16-04-2021 22:30:00 5.4 C 5.79 g/m*3 5.4 C 0 km/h
272 16-04-2021 22:35:00 5.4 C 5.79 g/m*3 5.4 C 0 km/h
273 16-04-2021 22:40:00 5.4 C 5.86 g/m*3 5.4 C 0 km/h
274 16-04-2021 22:45:00 5.3 C 5.82 g/m*3 5.3 C 0 km/h
275 16-04-2021 22:50:00 5.3 C 5.82 g/m*3 5.3 C 0 km/h
Sensor: Nr:Datum:Temp:Abs-Feuchte:Windchill:Wind:
Aussen-T/F 276 16-04-2021 22:55:00 5.2 C 5.78 g/m*3 5.2 C 0 km/h
277 16-04-2021 23:00:00 5.1 C 5.75 g/m*3 5.1 C 0 km/h
278 16-04-2021 23:05:00 5.1 C 5.75 g/m*3 5.1 C 0 km/h
279 16-04-2021 23:10:00 5.1 C 5.75 g/m*3 5.1 C 0 km/h
280 16-04-2021 23:15:00 5 C 5.78 g/m*3 5 C 0 km/h
281 16-04-2021 23:20:00 5 C 5.78 g/m*3 5 C 0 km/h
282 16-04-2021 23:25:00 4.9 C 5.74 g/m*3 4.9 C 0 km/h
283 16-04-2021 23:30:00 4.8 C 5.7 g/m*3 4.8 C 0 km/h
284 16-04-2021 23:35:00 4.7 C 5.66 g/m*3 4.7 C 0 km/h
285 16-04-2021 23:40:00 4.7 C 5.66 g/m*3 4.7 C 0 km/h
286 16-04-2021 23:45:00 4.6 C 5.62 g/m*3 4.6 C 0 km/h
287 16-04-2021 23:50:00 4.5 C 5.59 g/m*3 4.5 C 0 km/h
288 16-04-2021 23:55:00 4.4 C 5.62 g/m*3 4.4 C 0 km/h
289 17-04-2021 00:00:00 4.4 C 5.62 g/m*3 4.4 C 0 km/h
290 17-04-2021 00:05:00 4.4 C 5.62 g/m*3 4.4 C 0 km/h
291 17-04-2021 00:10:00 4.4 C 5.68 g/m*3 4.4 C 0 km/h
292 17-04-2021 00:15:00 4.4 C 5.68 g/m*3 4.4 C 0 km/h
293 17-04-2021 00:20:00 4.4 C 5.68 g/m*3 4.4 C 0 km/h
294 17-04-2021 00:25:00 4.4 C 5.62 g/m*3 4.4 C 0 km/h
295 17-04-2021 00:30:00 4.4 C 5.62 g/m*3 4.4 C 0 km/h
296 17-04-2021 00:35:00 4.4 C 5.62 g/m*3 4.4 C 0 km/h
297 17-04-2021 00:40:00 4.4 C 5.68 g/m*3 4.4 C 0 km/h
298 17-04-2021 00:45:00 4.4 C 5.68 g/m*3 4.4 C 0 km/h
299 17-04-2021 00:50:00 4.4 C 5.68 g/m*3 4.4 C 0 km/h
300 17-04-2021 00:55:00 4.4 C 5.68 g/m*3 4.4 C 0 km/h
Sensor: Nr:Datum:Temp:Abs-Feuchte:Windchill:Wind:
Aussen-T/F 301 17-04-2021 01:00:00 4.4 C 5.68 g/m*3 4.4 C 0 km/h
302 17-04-2021 01:05:00 4.4 C 5.68 g/m*3 4.4 C 0 km/h
303 17-04-2021 01:10:00 4.4 C 5.68 g/m*3 4.4 C 0 km/h
304 17-04-2021 01:15:00 4.4 C 5.68 g/m*3 4.4 C 0 km/h
305 17-04-2021 01:20:00 4.4 C 5.62 g/m*3 4.4 C 0 km/h
306 17-04-2021 01:25:00 4.3 C 5.58 g/m*3 4.3 C 0 km/h
307 17-04-2021 01:30:00 4.3 C 5.58 g/m*3 4.3 C 0 km/h
308 17-04-2021 01:35:00 4.2 C 5.54 g/m*3 4.2 C 0 km/h
309 17-04-2021 01:40:00 4.2 C 5.61 g/m*3 4.2 C 0 km/h
310 17-04-2021 01:45:00 4.1 C 5.57 g/m*3 4.1 C 0 km/h
311 17-04-2021 01:50:00 4.1 C 5.57 g/m*3 4.1 C 0 km/h
312 17-04-2021 01:55:00 4.1 C 5.63 g/m*3 4.1 C 0 km/h
313 17-04-2021 02:00:00 4.1 C 5.63 g/m*3 4.1 C 0 km/h
314 17-04-2021 02:05:00 4.1 C 5.63 g/m*3 4.1 C 0 km/h
315 17-04-2021 02:10:00 4.1 C 5.63 g/m*3 4.1 C 0 km/h
316 17-04-2021 02:15:00 4.1 C 5.63 g/m*3 4.1 C 0 km/h
317 17-04-2021 02:20:00 4.1 C 5.63 g/m*3 4.1 C 0 km/h
318 17-04-2021 02:25:00 4 C 5.59 g/m*3 4 C 0 km/h
319 17-04-2021 02:30:00 4 C 5.59 g/m*3 4 C 0 km/h
320 17-04-2021 02:35:00 4 C 5.59 g/m*3 4 C 0 km/h
321 17-04-2021 02:40:00 4 C 5.59 g/m*3 4 C 0 km/h
322 17-04-2021 02:45:00 3.9 C 5.56 g/m*3 3.9 C 0 km/h
323 17-04-2021 02:50:00 3.9 C 5.56 g/m*3 3.9 C 0 km/h
324 17-04-2021 02:55:00 3.9 C 5.56 g/m*3 3.9 C 0 km/h
325 17-04-2021 03:00:00 3.9 C 5.56 g/m*3 3.9 C 0 km/h
Sensor: Nr:Datum:Temp:Abs-Feuchte:Windchill:Wind:
Aussen-T/F 326 17-04-2021 03:05:00 3.9 C 5.62 g/m*3 3.9 C 0 km/h
327 17-04-2021 03:10:00 3.9 C 5.56 g/m*3 3.9 C 0 km/h
328 17-04-2021 03:15:00 3.9 C 5.56 g/m*3 3.9 C 0 km/h
329 17-04-2021 03:20:00 3.9 C 5.56 g/m*3 3.9 C 0 km/h
330 17-04-2021 03:25:00 3.9 C 5.56 g/m*3 3.9 C 0 km/h
331 17-04-2021 03:30:00 3.9 C 5.56 g/m*3 3.9 C 0 km/h
332 17-04-2021 03:35:00 3.9 C 5.56 g/m*3 3.9 C 0 km/h
333 17-04-2021 03:40:00 3.9 C 5.56 g/m*3 3.9 C 0 km/h
334 17-04-2021 03:45:00 3.9 C 5.56 g/m*3 3.9 C 0 km/h
335 17-04-2021 03:50:00 3.8 C 5.52 g/m*3 3.8 C 0 km/h
336 17-04-2021 03:55:00 3.8 C 5.52 g/m*3 3.8 C 0 km/h
337 17-04-2021 04:00:00 3.8 C 5.52 g/m*3 3.8 C 0 km/h
338 17-04-2021 04:05:00 3.8 C 5.52 g/m*3 3.8 C 0 km/h
339 17-04-2021 04:10:00 3.7 C 5.48 g/m*3 3.7 C 0 km/h
340 17-04-2021 04:15:00 3.6 C 5.45 g/m*3 3.6 C 0 km/h
341 17-04-2021 04:20:00 3.6 C 5.51 g/m*3 3.6 C 0 km/h
342 17-04-2021 04:25:00 3.6 C 5.45 g/m*3 3.6 C 0 km/h
343 17-04-2021 04:30:00 3.4 C 5.37 g/m*3 3.4 C 0 km/h
344 17-04-2021 04:35:00 3.4 C 5.37 g/m*3 3.4 C 0 km/h
345 17-04-2021 04:40:00 3.3 C 5.4 g/m*3 3.3 C 0 km/h
346 17-04-2021 04:45:00 3.3 C 5.4 g/m*3 3.3 C 0 km/h
347 17-04-2021 04:50:00 3.2 C 5.36 g/m*3 3.2 C 0 km/h
348 17-04-2021 04:55:00 3.1 C 5.27 g/m*3 3.1 C 0 km/h
349 17-04-2021 05:00:00 2.9 C 5.2 g/m*3 2.9 C 0 km/h
350 17-04-2021 05:05:00 2.8 C 5.22 g/m*3 2.8 C 0 km/h
Sensor: Nr:Datum:Temp:Abs-Feuchte:Windchill:Wind:
Aussen-T/F 351 17-04-2021 05:10:00 2.7 C 5.19 g/m*3 2.7 C 0 km/h
352 17-04-2021 05:15:00 2.5 C 5.12 g/m*3 2.5 C 0 km/h
353 17-04-2021 05:20:00 2.4 C 5.08 g/m*3 2.4 C 0 km/h
354 17-04-2021 05:25:00 2.3 C 5.1 g/m*3 2.3 C 0 km/h
355 17-04-2021 05:30:00 2.3 C 5.1 g/m*3 2.3 C 0 km/h
356 17-04-2021 05:35:00 2.3 C 5.1 g/m*3 2.3 C 0 km/h
357 17-04-2021 05:40:00 2.3 C 5.16 g/m*3 2.3 C 0 km/h
358 17-04-2021 05:45:00 2.3 C 5.1 g/m*3 2.3 C 0 km/h
359 17-04-2021 05:50:00 2.2 C 5.13 g/m*3 2.2 C 0 km/h
360 17-04-2021 05:55:00 2.2 C 5.13 g/m*3 2.2 C 0 km/h
361 17-04-2021 06:00:00 2.1 C 5.09 g/m*3 2.1 C 0 km/h
362 17-04-2021 06:05:00 1.9 C 4.97 g/m*3 1.9 C 0 km/h
363 17-04-2021 06:10:00 1.8 C 4.93 g/m*3 1.8 C 0 km/h
364 17-04-2021 06:15:00 1.7 C 4.95 g/m*3 1.7 C 0 km/h
365 17-04-2021 06:20:00 1.7 C 4.95 g/m*3 1.7 C 0 km/h
366 17-04-2021 06:25:00 1.6 C 4.92 g/m*3 1.6 C 0 km/h
367 17-04-2021 06:30:00 1.5 C 4.89 g/m*3 1.5 C 0 km/h
368 17-04-2021 06:35:00 1.4 C 4.85 g/m*3 1.4 C 0 km/h
369 17-04-2021 06:40:00 1.4 C 4.91 g/m*3 1.4 C 0 km/h
370 17-04-2021 06:45:00 1.4 C 4.91 g/m*3 1.4 C 0 km/h
371 17-04-2021 06:50:00 1.3 C 4.87 g/m*3 1.3 C 0 km/h
372 17-04-2021 06:55:00 1.3 C 4.87 g/m*3 1.3 C 0 km/h
373 17-04-2021 07:00:00 1.3 C 4.87 g/m*3 1.3 C 0 km/h
374 17-04-2021 07:05:00 1.3 C 4.87 g/m*3 1.3 C 0 km/h
375 17-04-2021 07:10:00 1.3 C 4.87 g/m*3 1.3 C 0 km/h
Sensor: Nr:Datum:Temp:Abs-Feuchte:Windchill:Wind:
Aussen-T/F 376 17-04-2021 07:15:00 1.4 C 4.96 g/m*3 1.4 C 0 km/h
377 17-04-2021 07:20:00 1.4 C 4.96 g/m*3 1.4 C 0 km/h
378 17-04-2021 07:25:00 1.5 C 4.99 g/m*3 1.5 C 0 km/h
379 17-04-2021 07:30:00 1.5 C 4.99 g/m*3 1.5 C 0 km/h
380 17-04-2021 07:35:00 1.6 C 5.03 g/m*3 1.6 C 0 km/h
381 17-04-2021 07:40:00 1.6 C 5.03 g/m*3 1.6 C 0 km/h
382 17-04-2021 07:45:00 1.7 C 5.06 g/m*3 1.7 C 0 km/h
383 17-04-2021 07:50:00 1.8 C 5.1 g/m*3 1.8 C 0 km/h
384 17-04-2021 07:55:00 1.8 C 5.1 g/m*3 1.8 C 0 km/h
385 17-04-2021 08:00:00 1.9 C 5.19 g/m*3 1.9 C 0 km/h
386 17-04-2021 08:05:00 2.1 C 5.26 g/m*3 2.1 C 0 km/h
387 17-04-2021 08:10:00 2.2 C 5.29 g/m*3 2.2 C 0 km/h
388 17-04-2021 08:15:00 2.3 C 5.33 g/m*3 2.3 C 0 km/h
389 17-04-2021 08:20:00 2.4 C 5.37 g/m*3 2.4 C 0 km/h
390 17-04-2021 08:25:00 2.5 C 5.4 g/m*3 2.5 C 0 km/h
391 17-04-2021 08:30:00 2.6 C 5.38 g/m*3 2.6 C 0 km/h
392 17-04-2021 08:35:00 2.6 C 5.44 g/m*3 2.6 C 0 km/h
393 17-04-2021 08:40:00 2.7 C 5.42 g/m*3 2.7 C 0 km/h
394 17-04-2021 08:45:00 2.7 C 5.42 g/m*3 2.7 C 0 km/h
395 17-04-2021 08:50:00 2.8 C 5.46 g/m*3 2.8 C 0 km/h
396 17-04-2021 08:55:00 2.9 C 5.55 g/m*3 2.9 C 0 km/h
397 17-04-2021 09:00:00 3.2 C 5.66 g/m*3 3.2 C 0 km/h
398 17-04-2021 09:05:00 3.4 C 5.74 g/m*3 3.4 C 0 km/h
399 17-04-2021 09:10:00 3.6 C 5.82 g/m*3 3.6 C 0 km/h
400 17-04-2021 09:15:00 3.8 C 5.83 g/m*3 3.8 C 0 km/h
Sensor: Nr:Datum:Temp:Abs-Feuchte:Windchill:Wind:
Aussen-T/F 401 17-04-2021 09:20:00 3.9 C 5.87 g/m*3 3.9 C 0 km/h
402 17-04-2021 09:25:00 4.1 C 5.95 g/m*3 4.1 C 0 km/h
403 17-04-2021 09:30:00 4.3 C 5.97 g/m*3 4.3 C 0 km/h
404 17-04-2021 09:35:00 4.4 C 6.01 g/m*3 4.4 C 0 km/h
405 17-04-2021 09:40:00 4.6 C 6.02 g/m*3 4.6 C 0 km/h
406 17-04-2021 09:45:00 4.8 C 5.97 g/m*3 4.8 C 0 km/h
407 17-04-2021 09:50:00 5.1 C 5.88 g/m*3 5.1 C 0 km/h
408 17-04-2021 09:55:00 5.4 C 5.93 g/m*3 5.4 C 0 km/h
409 17-04-2021 10:00:00 5.8 C 6.02 g/m*3 5.8 C 0 km/h
410 17-04-2021 10:05:00 6.3 C 5.77 g/m*3 4.64 C 8.1 km/h
411 17-04-2021 10:10:00 6.8 C 5.51 g/m*3 6.8 C 4.8 km/h
412 17-04-2021 10:15:00 7.2 C 5.65 g/m*3 5.69 C 8.1 km/h
413 17-04-2021 10:20:00 7.4 C 5.57 g/m*3 5.93 C 8.1 km/h
414 17-04-2021 10:25:00 7.7 C 5.84 g/m*3 7.7 C 4.8 km/h
415 17-04-2021 10:30:00 7.7 C 5.68 g/m*3 7.7 C 3.2 km/h
416 17-04-2021 10:35:00 7.8 C 5.47 g/m*3 7.8 C 3.2 km/h
417 17-04-2021 10:40:00 8 C 5.29 g/m*3 7.06 C 6.4 km/h
418 17-04-2021 10:45:00 8.2 C 5.28 g/m*3 8.2 C 1.6 km/h
419 17-04-2021 10:50:00 8.3 C 5.06 g/m*3 6.37 C 11.3 km/h
420 17-04-2021 10:55:00 8.5 C 5.04 g/m*3 6.9 C 9.7 km/h
421 17-04-2021 11:00:00 8.8 C 4.79 g/m*3 6.5 C 14.5 km/h
422 17-04-2021 11:05:00 9.1 C 4.7 g/m*3 6.67 C 16.1 km/h
423 17-04-2021 11:10:00 9.3 C 4.85 g/m*3 6.92 C 16.1 km/h
424 17-04-2021 11:15:00 9.5 C 4.73 g/m*3 6.98 C 17.7 km/h
425 17-04-2021 11:20:00 9.6 C 4.76 g/m*3 7.7 C 12.9 km/h
Sensor: Nr:Datum:Temp:Abs-Feuchte:Windchill:Wind:
Aussen-T/F 426 17-04-2021 11:25:00 9.7 C 4.89 g/m*3 7.82 C 12.9 km/h
427 17-04-2021 11:30:00 9.9 C 4.86 g/m*3 8.06 C 12.9 km/h
428 17-04-2021 11:35:00 10.1 C 4.82 g/m*3 8.1 C 14.5 km/h
429 17-04-2021 11:40:00 10.2 C 4.76 g/m*3 8.22 C 14.5 km/h
430 17-04-2021 11:45:00 10.3 C 4.69 g/m*3 7.67 C 20.9 km/h
431 17-04-2021 11:50:00 10.3 C 4.69 g/m*3 7.98 C 17.7 km/h
432 17-04-2021 11:55:00 10.1 C 4.63 g/m*3 7.91 C 16.1 km/h
433 17-04-2021 12:00:00 10.2 C 4.66 g/m*3 8.22 C 14.5 km/h
434 17-04-2021 12:05:00 10.3 C 4.69 g/m*3 7.82 C 19.3 km/h
435 17-04-2021 12:10:00 10.6 C 4.78 g/m*3 8.2 C 19.3 km/h
436 17-04-2021 12:15:00 10.6 C 4.68 g/m*3 8.36 C 17.7 km/h
437 17-04-2021 12:20:00 10.7 C 4.62 g/m*3 8.48 C 17.7 km/h
438 17-04-2021 12:25:00 10.7 C 4.71 g/m*3 9.04 C 12.9 km/h
439 17-04-2021 12:30:00 10.8 C 4.84 g/m*3 8.78 C 16.1 km/h
440 17-04-2021 12:35:00 10.9 C 4.77 g/m*3 9.28 C 12.9 km/h
441 17-04-2021 12:40:00 11.2 C 4.97 g/m*3 11.2 C 19.3 km/h
442 17-04-2021 12:45:00 11.2 C 4.66 g/m*3 11.2 C 22.5 km/h
443 17-04-2021 12:50:00 11 C 4.6 g/m*3 10.16 C 8.1 km/h
444 17-04-2021 12:55:00 10.9 C 4.58 g/m*3 9.08 C 14.5 km/h
445 17-04-2021 13:00:00 10.9 C 4.87 g/m*3 9.28 C 12.9 km/h
446 17-04-2021 13:05:00 11.3 C 4.79 g/m*3 11.3 C 20.9 km/h
447 17-04-2021 13:10:00 11.4 C 4.82 g/m*3 11.4 C 8.1 km/h
448 17-04-2021 13:15:00 11.6 C 4.78 g/m*3 11.6 C 9.7 km/h
449 17-04-2021 13:20:00 11.7 C 4.71 g/m*3 11.7 C 16.1 km/h
450 17-04-2021 13:25:00 11.9 C 4.66 g/m*3 11.9 C 17.7 km/h
Sensor: Nr:Datum:Temp:Abs-Feuchte:Windchill:Wind:
Aussen-T/F 451 17-04-2021 13:30:00 11.8 C 4.53 g/m*3 11.8 C 12.9 km/h
452 17-04-2021 13:35:00 11.7 C 4.81 g/m*3 11.7 C 19.3 km/h
453 17-04-2021 13:40:00 11.8 C 4.53 g/m*3 11.8 C 14.5 km/h
454 17-04-2021 13:45:00 11.8 C 4.42 g/m*3 11.8 C 29 km/h
455 17-04-2021 13:50:00 11.8 C 4.42 g/m*3 11.8 C 29 km/h
456 17-04-2021 13:55:00 11.8 C 4.53 g/m*3 11.8 C 12.9 km/h
457 17-04-2021 14:00:00 11.8 C 4.42 g/m*3 11.8 C 12.9 km/h
458 17-04-2021 14:05:00 11.6 C 4.37 g/m*3 11.6 C 12.9 km/h
459 17-04-2021 14:10:00 11.5 C 4.65 g/m*3 11.5 C 17.7 km/h
460 17-04-2021 14:15:00 11.6 C 4.47 g/m*3 11.6 C 14.5 km/h
461 17-04-2021 14:20:00 11.7 C 4.71 g/m*3 11.7 C 8.1 km/h
462 17-04-2021 14:25:00 12.2 C 4.75 g/m*3 12.2 C 12.9 km/h
463 17-04-2021 14:30:00 12.7 C 4.9 g/m*3 12.7 C 19.3 km/h
464 17-04-2021 14:35:00 12.7 C 4.56 g/m*3 12.7 C 17.7 km/h
465 17-04-2021 14:40:00 12.5 C 4.62 g/m*3 12.5 C 22.5 km/h
466 17-04-2021 14:45:00 12.4 C 4.7 g/m*3 12.4 C 14.5 km/h
467 17-04-2021 14:50:00 12.3 C 4.67 g/m*3 12.3 C 14.5 km/h
468 17-04-2021 14:55:00 12.1 C 4.72 g/m*3 12.1 C 20.9 km/h
469 17-04-2021 15:00:00 11.9 C 4.87 g/m*3 11.9 C 17.7 km/h
470 17-04-2021 15:05:00 11.8 C 4.84 g/m*3 11.8 C 17.7 km/h
471 17-04-2021 15:10:00 11.7 C 4.92 g/m*3 11.7 C 22.5 km/h
472 17-04-2021 15:15:00 11.5 C 4.96 g/m*3 11.5 C 24.1 km/h
473 17-04-2021 15:20:00 11.2 C 5.17 g/m*3 11.2 C 24.1 km/h
474 17-04-2021 15:25:00 10.8 C 5.14 g/m*3 8.45 C 19.3 km/h
475 17-04-2021 15:30:00 10.6 C 5.17 g/m*3 8.53 C 16.1 km/h
Sensor: Nr:Datum:Temp:Abs-Feuchte:Windchill:Wind:
Aussen-T/F 476 17-04-2021 15:35:00 10.3 C 5.17 g/m*3 7.98 C 17.7 km/h
477 17-04-2021 15:40:00 10.1 C 5.2 g/m*3 7.57 C 19.3 km/h
478 17-04-2021 15:45:00 9.9 C 5.23 g/m*3 7.66 C 16.1 km/h
479 17-04-2021 15:50:00 9.9 C 5.23 g/m*3 7.66 C 16.1 km/h
480 17-04-2021 15:55:00 9.8 C 5.2 g/m*3 6.89 C 22.5 km/h
481 17-04-2021 16:00:00 9.7 C 5.25 g/m*3 7.07 C 19.3 km/h
482 17-04-2021 16:05:00 9.7 C 5.25 g/m*3 7.82 C 12.9 km/h
483 17-04-2021 16:10:00 9.8 C 5.38 g/m*3 7.94 C 12.9 km/h
484 17-04-2021 16:15:00 9.9 C 5.23 g/m*3 8.06 C 12.9 km/h
485 17-04-2021 16:20:00 10 C 5.36 g/m*3 8.42 C 11.3 km/h
486 17-04-2021 16:25:00 10.1 C 5.39 g/m*3 8.1 C 14.5 km/h
487 17-04-2021 16:30:00 9.9 C 5.23 g/m*3 8.06 C 12.9 km/h
488 17-04-2021 16:35:00 9.9 C 5.32 g/m*3 8.56 C 9.7 km/h
489 17-04-2021 16:40:00 10 C 5.36 g/m*3 8.99 C 8.1 km/h
490 17-04-2021 16:45:00 10.1 C 5.39 g/m*3 8.8 C 9.7 km/h
491 17-04-2021 16:50:00 10.2 C 5.42 g/m*3 10.2 C 4.8 km/h
492 17-04-2021 16:55:00 10.2 C 5.42 g/m*3 9.6 C 6.4 km/h
493 17-04-2021 17:00:00 10.2 C 5.23 g/m*3 9.22 C 8.1 km/h
494 17-04-2021 17:05:00 10.3 C 5.27 g/m*3 9.34 C 8.1 km/h
495 17-04-2021 17:10:00 10.3 C 5.27 g/m*3 9.34 C 8.1 km/h
496 17-04-2021 17:15:00 10.3 C 5.27 g/m*3 8.78 C 11.3 km/h
497 17-04-2021 17:20:00 10.3 C 5.27 g/m*3 8.34 C 14.5 km/h
498 17-04-2021 17:25:00 10.3 C 5.17 g/m*3 8.78 C 11.3 km/h
499 17-04-2021 17:30:00 10.2 C 5.04 g/m*3 7.86 C 17.7 km/h
500 17-04-2021 17:35:00 10.2 C 5.04 g/m*3 8.92 C 9.7 km/h
Sensor: Nr:Datum:Temp:Abs-Feuchte:Windchill:Wind:
Aussen-T/F 501 17-04-2021 17:40:00 10.2 C 5.04 g/m*3 8.66 C 11.3 km/h
502 17-04-2021 17:45:00 10.2 C 5.04 g/m*3 8.66 C 11.3 km/h
503 17-04-2021 17:50:00 10.2 C 5.04 g/m*3 8.66 C 11.3 km/h
504 17-04-2021 17:55:00 10.2 C 5.04 g/m*3 9.22 C 8.1 km/h
505 17-04-2021 18:00:00 10.2 C 5.14 g/m*3 9.6 C 6.4 km/h
506 17-04-2021 18:05:00 10.2 C 5.04 g/m*3 9.22 C 8.1 km/h
507 17-04-2021 18:10:00 10.2 C 5.04 g/m*3 9.6 C 6.4 km/h
508 17-04-2021 18:15:00 10.2 C 5.14 g/m*3 8.92 C 9.7 km/h
509 17-04-2021 18:20:00 10.3 C 5.08 g/m*3 9.34 C 8.1 km/h
510 17-04-2021 18:25:00 10.5 C 5.14 g/m*3 9.02 C 11.3 km/h
511 17-04-2021 18:30:00 10.6 C 5.17 g/m*3 9.14 C 11.3 km/h
512 17-04-2021 18:35:00 10.6 C 5.27 g/m*3 9.4 C 9.7 km/h
513 17-04-2021 18:40:00 10.5 C 5.24 g/m*3 8.8 C 12.9 km/h
514 17-04-2021 18:45:00 10.6 C 5.27 g/m*3 9.69 C 8.1 km/h
515 17-04-2021 18:50:00 10.5 C 5.33 g/m*3 9.28 C 9.7 km/h
516 17-04-2021 18:55:00 10.4 C 5.3 g/m*3 9.16 C 9.7 km/h
517 17-04-2021 19:00:00 10.6 C 5.47 g/m*3 9.69 C 8.1 km/h
518 17-04-2021 19:05:00 10.8 C 5.44 g/m*3 9.93 C 8.1 km/h
519 17-04-2021 19:10:00 10.9 C 5.37 g/m*3 9.76 C 9.7 km/h
520 17-04-2021 19:15:00 10.9 C 5.27 g/m*3 9.76 C 9.7 km/h
521 17-04-2021 19:20:00 10.9 C 5.37 g/m*3 9.76 C 9.7 km/h
522 17-04-2021 19:25:00 10.8 C 5.44 g/m*3 9.38 C 11.3 km/h
523 17-04-2021 19:30:00 10.7 C 5.4 g/m*3 9.52 C 9.7 km/h
524 17-04-2021 19:35:00 10.5 C 5.14 g/m*3 8.59 C 14.5 km/h
525 17-04-2021 19:40:00 10.4 C 5.11 g/m*3 8.28 C 16.1 km/h
Sensor: Nr:Datum:Temp:Abs-Feuchte:Windchill:Wind:
Aussen-T/F 526 17-04-2021 19:45:00 10.4 C 5.11 g/m*3 8.28 C 16.1 km/h
527 17-04-2021 19:50:00 10.3 C 5.08 g/m*3 8.78 C 11.3 km/h
528 17-04-2021 19:55:00 10.2 C 5.14 g/m*3 9.22 C 8.1 km/h
529 17-04-2021 20:00:00 10.2 C 5.04 g/m*3 7.86 C 17.7 km/h
530 17-04-2021 20:05:00 10.1 C 5.11 g/m*3 9.1 C 8.1 km/h
531 17-04-2021 20:10:00 10.1 C 5.11 g/m*3 9.48 C 6.4 km/h
532 17-04-2021 20:15:00 10 C 5.07 g/m*3 8.68 C 9.7 km/h
533 17-04-2021 20:20:00 9.9 C 5.14 g/m*3 9.9 C 4.8 km/h
534 17-04-2021 20:25:00 9.9 C 5.04 g/m*3 9.25 C 6.4 km/h
535 17-04-2021 20:30:00 9.9 C 5.23 g/m*3 8.87 C 8.1 km/h
536 17-04-2021 20:35:00 9.8 C 5.2 g/m*3 9.14 C 6.4 km/h
537 17-04-2021 20:40:00 9.8 C 5.29 g/m*3 9.8 C 4.8 km/h
538 17-04-2021 20:45:00 9.7 C 5.35 g/m*3 9.7 C 4.8 km/h
539 17-04-2021 20:50:00 9.7 C 5.72 g/m*3 9.7 C 1.6 km/h
540 17-04-2021 20:55:00 9.5 C 5.64 g/m*3 9.5 C 1.6 km/h
541 17-04-2021 21:00:00 9.3 C 5.66 g/m*3 9.3 C 3.2 km/h
542 17-04-2021 21:05:00 9.2 C 5.71 g/m*3 9.2 C 3.2 km/h
543 17-04-2021 21:10:00 9.1 C 5.68 g/m*3 9.1 C 3.2 km/h
544 17-04-2021 21:15:00 9 C 5.73 g/m*3 9 C 1.6 km/h
545 17-04-2021 21:20:00 8.9 C 5.78 g/m*3 8.9 C 1.6 km/h
546 17-04-2021 21:25:00 8.8 C 5.83 g/m*3 8.8 C 1.6 km/h
547 17-04-2021 21:30:00 8.7 C 5.88 g/m*3 8.7 C 0 km/h
548 17-04-2021 21:35:00 8.6 C 5.84 g/m*3 8.6 C 0 km/h
549 17-04-2021 21:40:00 8.4 C 5.85 g/m*3 8.4 C 0 km/h
550 17-04-2021 21:45:00 8.4 C 5.85 g/m*3 8.4 C 0 km/h
Sensor: Nr:Datum:Temp:Abs-Feuchte:Windchill:Wind:
Aussen-T/F 551 17-04-2021 21:50:00 8.3 C 5.9 g/m*3 8.3 C 0 km/h
552 17-04-2021 21:55:00 8.2 C 5.86 g/m*3 8.2 C 0 km/h
553 17-04-2021 22:00:00 8.2 C 5.86 g/m*3 8.2 C 0 km/h
554 17-04-2021 22:05:00 8.1 C 5.82 g/m*3 8.1 C 1.6 km/h
555 17-04-2021 22:10:00 8 C 5.79 g/m*3 8 C 3.2 km/h
556 17-04-2021 22:15:00 8 C 5.87 g/m*3 8 C 1.6 km/h
557 17-04-2021 22:20:00 7.9 C 5.83 g/m*3 7.9 C 1.6 km/h
558 17-04-2021 22:25:00 7.9 C 5.83 g/m*3 7.9 C 4.8 km/h
559 17-04-2021 22:30:00 7.9 C 5.75 g/m*3 7.9 C 0 km/h
560 17-04-2021 22:35:00 7.9 C 5.67 g/m*3 7.9 C 1.6 km/h
561 17-04-2021 22:40:00 7.9 C 5.83 g/m*3 7.9 C 0 km/h
562 17-04-2021 22:45:00 7.9 C 5.83 g/m*3 7.9 C 0 km/h
563 17-04-2021 22:50:00 7.9 C 5.83 g/m*3 7.9 C 0 km/h
564 17-04-2021 22:55:00 7.9 C 5.91 g/m*3 7.9 C 0 km/h
565 17-04-2021 23:00:00 7.9 C 6 g/m*3 7.9 C 0 km/h
566 17-04-2021 23:05:00 7.9 C 6 g/m*3 7.9 C 0 km/h
567 17-04-2021 23:10:00 7.8 C 5.96 g/m*3 7.8 C 0 km/h
568 17-04-2021 23:15:00 7.8 C 5.96 g/m*3 7.8 C 0 km/h
569 17-04-2021 23:20:00 7.8 C 5.96 g/m*3 7.8 C 0 km/h
570 17-04-2021 23:25:00 7.7 C 5.92 g/m*3 7.7 C 0 km/h
571 17-04-2021 23:30:00 7.7 C 6 g/m*3 7.7 C 0 km/h
572 17-04-2021 23:35:00 7.7 C 6.08 g/m*3 7.7 C 0 km/h
573 17-04-2021 23:40:00 7.7 C 6.08 g/m*3 7.7 C 0 km/h
574 17-04-2021 23:45:00 7.7 C 6.08 g/m*3 7.7 C 0 km/h
575 17-04-2021 23:50:00 7.6 C 6.04 g/m*3 7.6 C 0 km/h
Sensor: Nr:Datum:Temp:Abs-Feuchte:Windchill:Wind:
Aussen-T/F 576 17-04-2021 23:55:00 7.6 C 6.04 g/m*3 7.6 C 0 km/h

Legende:
   Min
   Max


Maximal/Minimal-Werte vom 16.04.2021 - 17.04.2021

Sensor Min Max Avg
Temp
(Aussen-T/F)
0.2 °C
16-04-2021  01:55:00
12.7 °C
17-04-2021  14:30:00
6.22 °C
Abs-Feuchte
(Aussen-T/F)
4.37 g/m*3
17-04-2021  14:05:00
6.08 g/m*3
17-04-2021  23:35:00
5.21 g/m*3
Windchill
(Aussen-T/F)
0.2 C
16-04-2021  01:55:00
12.7 C
17-04-2021  14:30:00
5.69 C

Die Daten stammen von einer Davis Vantage Pro 2 Wetter-Station und werden unter Linux mit der Software wview2wettercgi und aufbereitet. Alle Angaben erfolgen ohne Gewähr für ihre Vollständigkeit oder Richtigkeit.
Kontakt: Rainer Krienke krienke@uni-koblenz.de . Meine Webseiten an der Uni Koblenz oder privat.
Version: $Revision: 0.78 $